<?xml version="1.0" encoding="UTF-8" standalone="no" ?>
<gpx xmlns="http://www.topografix.com/GPX/1/1" xmlns:xsi="http://www.w3.org/2001/XMLSchema-instance" xsi:schemaLocation="http://www.topografix.com/GPX/1/1 http://www.topografix.com/GPX/1/1/gpx.xsd" version="1.1" creator="VisuGPX - https://www.visugpx.com">
  <metadata>
    <name>sejour gov alsace</name>
  </metadata>
  <wpt lat="48.06424" lon="7.02221">
    <ele>1132</ele>
    <name><![CDATA[Col de la Schlucht]]></name>
    <desc><![CDATA[Parking]]></desc>
    <cmt><![CDATA[Parking]]></cmt>
  </wpt>
  <wpt lat="48.04158" lon="7.29947">
    <ele>223</ele>
    <name><![CDATA[Eguisheim]]></name>
  </wpt>
  <wpt lat="48.1793" lon="7.31018">
    <ele>275</ele>
    <name><![CDATA[Hunawihr]]></name>
  </wpt>
  <wpt lat="48.13923" lon="7.25933">
    <ele>251</ele>
    <name><![CDATA[Kaysersberg]]></name>
  </wpt>
  <wpt lat="48.14587" lon="7.25086">
    <ele>290</ele>
    <name><![CDATA[Kaysersberg-CCAS]]></name>
    <desc><![CDATA[3 Rue Rene le Guen]]></desc>
    <cmt><![CDATA[3 Rue Rene le Guen]]></cmt>
  </wpt>
  <wpt lat="48.14668" lon="7.25549">
    <ele>261</ele>
    <name><![CDATA[Kaysersberg-Salle de Sport]]></name>
  </wpt>
  <wpt lat="48.11261" lon="7.10019">
    <ele>958</ele>
    <name><![CDATA[Lac Noir]]></name>
  </wpt>
  <wpt lat="48.17" lon="7.12576">
    <ele>667</ele>
    <name><![CDATA[Le Bonhomme]]></name>
  </wpt>
  <wpt lat="48.05292" lon="6.9482">
    <ele>918</ele>
    <name><![CDATA[Lispach]]></name>
  </wpt>
  <wpt lat="48.16758" lon="7.29424">
    <ele>321</ele>
    <name><![CDATA[Riquewihr]]></name>
  </wpt>
  <wpt lat="48.23274" lon="7.36606">
    <ele>254</ele>
    <name><![CDATA[St-Hippolyte]]></name>
  </wpt>
  <wpt lat="48.22694" lon="7.30439">
    <ele>466</ele>
    <name><![CDATA[Thannenkirch]]></name>
  </wpt>
  <trk>
    <name><![CDATA[Eguisheim-Tour des châteaux d'Hagueneck, d'Hohlandsburg et d'Husseren (17,8 km & 770 m)]]></name>
    <trkseg>
      <trkpt lat="48.04161" lon="7.29946">
        <ele>223</ele>
        <time>2019-12-21T11:46:27Z</time>
      </trkpt>
      <trkpt lat="48.04204" lon="7.29981">
        <ele>222</ele>
        <time>2019-12-21T11:46:32Z</time>
      </trkpt>
      <trkpt lat="48.04273" lon="7.30028">
        <ele>221</ele>
        <time>2019-12-21T11:46:37Z</time>
      </trkpt>
      <trkpt lat="48.04414" lon="7.30075">
        <ele>221</ele>
        <time>2019-12-21T11:46:42Z</time>
      </trkpt>
      <trkpt lat="48.04437" lon="7.29968">
        <ele>226</ele>
        <time>2019-12-21T11:46:47Z</time>
      </trkpt>
      <trkpt lat="48.04504" lon="7.29931">
        <ele>234</ele>
        <time>2019-12-21T11:46:52Z</time>
      </trkpt>
      <trkpt lat="48.04503" lon="7.29878">
        <ele>238</ele>
        <time>2019-12-21T11:46:57Z</time>
      </trkpt>
      <trkpt lat="48.04526" lon="7.29817">
        <ele>243</ele>
        <time>2019-12-21T11:47:02Z</time>
      </trkpt>
      <trkpt lat="48.0458" lon="7.29735">
        <ele>252</ele>
        <time>2019-12-21T11:47:07Z</time>
      </trkpt>
      <trkpt lat="48.04586" lon="7.29642">
        <ele>257</ele>
        <time>2019-12-21T11:47:12Z</time>
      </trkpt>
      <trkpt lat="48.04614" lon="7.29496">
        <ele>265</ele>
        <time>2019-12-21T11:47:17Z</time>
      </trkpt>
      <trkpt lat="48.04698" lon="7.295">
        <ele>272</ele>
        <time>2019-12-21T11:47:22Z</time>
      </trkpt>
      <trkpt lat="48.04709" lon="7.29431">
        <ele>275</ele>
        <time>2019-12-21T11:47:27Z</time>
      </trkpt>
      <trkpt lat="48.04721" lon="7.29341">
        <ele>280</ele>
        <time>2019-12-21T11:47:32Z</time>
      </trkpt>
      <trkpt lat="48.04778" lon="7.29268">
        <ele>284</ele>
        <time>2019-12-21T11:47:37Z</time>
      </trkpt>
      <trkpt lat="48.04781" lon="7.29182">
        <ele>291</ele>
        <time>2019-12-21T11:47:42Z</time>
      </trkpt>
      <trkpt lat="48.04772" lon="7.291">
        <ele>296</ele>
        <time>2019-12-21T11:47:47Z</time>
      </trkpt>
      <trkpt lat="48.04795" lon="7.29068">
        <ele>298</ele>
        <time>2019-12-21T11:47:52Z</time>
      </trkpt>
      <trkpt lat="48.04798" lon="7.29028">
        <ele>302</ele>
        <time>2019-12-21T11:47:57Z</time>
      </trkpt>
      <trkpt lat="48.04795" lon="7.28968">
        <ele>309</ele>
        <time>2019-12-21T11:48:02Z</time>
      </trkpt>
      <trkpt lat="48.04838" lon="7.28822">
        <ele>325</ele>
        <time>2019-12-21T11:48:07Z</time>
      </trkpt>
      <trkpt lat="48.04838" lon="7.28569">
        <ele>335</ele>
        <time>2019-12-21T11:48:12Z</time>
      </trkpt>
      <trkpt lat="48.04949" lon="7.28544">
        <ele>336</ele>
        <time>2019-12-21T11:48:17Z</time>
      </trkpt>
      <trkpt lat="48.0501" lon="7.28569">
        <ele>332</ele>
        <time>2019-12-21T11:48:22Z</time>
      </trkpt>
      <trkpt lat="48.05002" lon="7.28521">
        <ele>335</ele>
        <time>2019-12-21T11:48:27Z</time>
      </trkpt>
      <trkpt lat="48.05068" lon="7.28509">
        <ele>330</ele>
        <time>2019-12-21T11:48:32Z</time>
      </trkpt>
      <trkpt lat="48.05151" lon="7.28517">
        <ele>317</ele>
        <time>2019-12-21T11:48:37Z</time>
      </trkpt>
      <trkpt lat="48.05188" lon="7.28466">
        <ele>313</ele>
        <time>2019-12-21T11:48:42Z</time>
      </trkpt>
      <trkpt lat="48.05251" lon="7.28414">
        <ele>308</ele>
        <time>2019-12-21T11:48:47Z</time>
      </trkpt>
      <trkpt lat="48.05292" lon="7.28453">
        <ele>301</ele>
        <time>2019-12-21T11:48:52Z</time>
      </trkpt>
      <trkpt lat="48.053" lon="7.28384">
        <ele>309</ele>
        <time>2019-12-21T11:48:57Z</time>
      </trkpt>
      <trkpt lat="48.05349" lon="7.28315">
        <ele>318</ele>
        <time>2019-12-21T11:49:02Z</time>
      </trkpt>
      <trkpt lat="48.05263" lon="7.28264">
        <ele>322</ele>
        <time>2019-12-21T11:49:07Z</time>
      </trkpt>
      <trkpt lat="48.05223" lon="7.28032">
        <ele>359</ele>
        <time>2019-12-21T11:49:12Z</time>
      </trkpt>
      <trkpt lat="48.0524" lon="7.28015">
        <ele>364</ele>
        <time>2019-12-21T11:49:17Z</time>
      </trkpt>
      <trkpt lat="48.0522" lon="7.27933">
        <ele>374</ele>
        <time>2019-12-21T11:49:22Z</time>
      </trkpt>
      <trkpt lat="48.05208" lon="7.27703">
        <ele>402</ele>
        <time>2019-12-21T11:49:27Z</time>
      </trkpt>
      <trkpt lat="48.05223" lon="7.2768">
        <ele>403</ele>
        <time>2019-12-21T11:49:32Z</time>
      </trkpt>
      <trkpt lat="48.05238" lon="7.27697">
        <ele>398</ele>
        <time>2019-12-21T11:49:37Z</time>
      </trkpt>
      <trkpt lat="48.05253" lon="7.27778">
        <ele>389</ele>
        <time>2019-12-21T11:49:42Z</time>
      </trkpt>
      <trkpt lat="48.05297" lon="7.27896">
        <ele>392</ele>
        <time>2019-12-21T11:49:47Z</time>
      </trkpt>
      <trkpt lat="48.05322" lon="7.2789">
        <ele>399</ele>
        <time>2019-12-21T11:49:52Z</time>
      </trkpt>
      <trkpt lat="48.0529" lon="7.27777">
        <ele>402</ele>
        <time>2019-12-21T11:49:57Z</time>
      </trkpt>
      <trkpt lat="48.05256" lon="7.27641">
        <ele>405</ele>
        <time>2019-12-21T11:50:02Z</time>
      </trkpt>
      <trkpt lat="48.05264" lon="7.27614">
        <ele>413</ele>
        <time>2019-12-21T11:50:07Z</time>
      </trkpt>
      <trkpt lat="48.05274" lon="7.27576">
        <ele>422</ele>
        <time>2019-12-21T11:50:12Z</time>
      </trkpt>
      <trkpt lat="48.0528" lon="7.27548">
        <ele>430</ele>
        <time>2019-12-21T11:50:17Z</time>
      </trkpt>
      <trkpt lat="48.05292" lon="7.2762">
        <ele>422</ele>
        <time>2019-12-21T11:50:22Z</time>
      </trkpt>
      <trkpt lat="48.05298" lon="7.27568">
        <ele>431</ele>
        <time>2019-12-21T11:50:27Z</time>
      </trkpt>
      <trkpt lat="48.05293" lon="7.27493">
        <ele>444</ele>
        <time>2019-12-21T11:50:32Z</time>
      </trkpt>
      <trkpt lat="48.05267" lon="7.27473">
        <ele>442</ele>
        <time>2019-12-21T11:50:37Z</time>
      </trkpt>
      <trkpt lat="48.05244" lon="7.27493">
        <ele>436</ele>
        <time>2019-12-21T11:50:42Z</time>
      </trkpt>
      <trkpt lat="48.05267" lon="7.27473">
        <ele>442</ele>
        <time>2019-12-21T11:50:47Z</time>
      </trkpt>
      <trkpt lat="48.05292" lon="7.27495">
        <ele>443</ele>
        <time>2019-12-21T11:50:52Z</time>
      </trkpt>
      <trkpt lat="48.05297" lon="7.27569">
        <ele>431</ele>
        <time>2019-12-21T11:50:57Z</time>
      </trkpt>
      <trkpt lat="48.05291" lon="7.2762">
        <ele>421</ele>
        <time>2019-12-21T11:51:02Z</time>
      </trkpt>
      <trkpt lat="48.0528" lon="7.27548">
        <ele>430</ele>
        <time>2019-12-21T11:51:07Z</time>
      </trkpt>
      <trkpt lat="48.05273" lon="7.27575">
        <ele>422</ele>
        <time>2019-12-21T11:51:12Z</time>
      </trkpt>
      <trkpt lat="48.05263" lon="7.27616">
        <ele>412</ele>
        <time>2019-12-21T11:51:17Z</time>
      </trkpt>
      <trkpt lat="48.05254" lon="7.27645">
        <ele>404</ele>
        <time>2019-12-21T11:51:22Z</time>
      </trkpt>
      <trkpt lat="48.05321" lon="7.2789">
        <ele>398</ele>
        <time>2019-12-21T11:51:27Z</time>
      </trkpt>
      <trkpt lat="48.05375" lon="7.27925">
        <ele>409</ele>
        <time>2019-12-21T11:51:32Z</time>
      </trkpt>
      <trkpt lat="48.05455" lon="7.28032">
        <ele>409</ele>
        <time>2019-12-21T11:51:37Z</time>
      </trkpt>
      <trkpt lat="48.0559" lon="7.28135">
        <ele>409</ele>
        <time>2019-12-21T11:51:42Z</time>
      </trkpt>
      <trkpt lat="48.05624" lon="7.28109">
        <ele>413</ele>
        <time>2019-12-21T11:51:47Z</time>
      </trkpt>
      <trkpt lat="48.05629" lon="7.28053">
        <ele>418</ele>
        <time>2019-12-21T11:51:52Z</time>
      </trkpt>
      <trkpt lat="48.05613" lon="7.27994">
        <ele>426</ele>
        <time>2019-12-21T11:51:57Z</time>
      </trkpt>
      <trkpt lat="48.05593" lon="7.27899">
        <ele>434</ele>
        <time>2019-12-21T11:52:02Z</time>
      </trkpt>
      <trkpt lat="48.05559" lon="7.27861">
        <ele>444</ele>
        <time>2019-12-21T11:52:07Z</time>
      </trkpt>
      <trkpt lat="48.05564" lon="7.27822">
        <ele>448</ele>
        <time>2019-12-21T11:52:12Z</time>
      </trkpt>
      <trkpt lat="48.05616" lon="7.27758">
        <ele>447</ele>
        <time>2019-12-21T11:52:17Z</time>
      </trkpt>
      <trkpt lat="48.05667" lon="7.2753">
        <ele>490</ele>
        <time>2019-12-21T11:52:22Z</time>
      </trkpt>
      <trkpt lat="48.0571" lon="7.2753">
        <ele>481</ele>
        <time>2019-12-21T11:52:27Z</time>
      </trkpt>
      <trkpt lat="48.05756" lon="7.2741">
        <ele>500</ele>
        <time>2019-12-21T11:52:32Z</time>
      </trkpt>
      <trkpt lat="48.05791" lon="7.27388">
        <ele>504</ele>
        <time>2019-12-21T11:52:37Z</time>
      </trkpt>
      <trkpt lat="48.05822" lon="7.27461">
        <ele>483</ele>
        <time>2019-12-21T11:52:42Z</time>
      </trkpt>
      <trkpt lat="48.05911" lon="7.275">
        <ele>485</ele>
        <time>2019-12-21T11:52:47Z</time>
      </trkpt>
      <trkpt lat="48.05989" lon="7.27663">
        <ele>461</ele>
        <time>2019-12-21T11:52:52Z</time>
      </trkpt>
      <trkpt lat="48.06036" lon="7.27718">
        <ele>452</ele>
        <time>2019-12-21T11:52:57Z</time>
      </trkpt>
      <trkpt lat="48.06089" lon="7.27745">
        <ele>449</ele>
        <time>2019-12-21T11:53:02Z</time>
      </trkpt>
      <trkpt lat="48.06012" lon="7.27603">
        <ele>479</ele>
        <time>2019-12-21T11:53:07Z</time>
      </trkpt>
      <trkpt lat="48.05966" lon="7.275">
        <ele>496</ele>
        <time>2019-12-21T11:53:12Z</time>
      </trkpt>
      <trkpt lat="48.059" lon="7.27423">
        <ele>504</ele>
        <time>2019-12-21T11:53:17Z</time>
      </trkpt>
      <trkpt lat="48.05854" lon="7.27358">
        <ele>514</ele>
        <time>2019-12-21T11:53:22Z</time>
      </trkpt>
      <trkpt lat="48.05751" lon="7.27251">
        <ele>535</ele>
        <time>2019-12-21T11:53:27Z</time>
      </trkpt>
      <trkpt lat="48.05785" lon="7.27217">
        <ele>543</ele>
        <time>2019-12-21T11:53:32Z</time>
      </trkpt>
      <trkpt lat="48.05808" lon="7.27213">
        <ele>545</ele>
        <time>2019-12-21T11:53:37Z</time>
      </trkpt>
      <trkpt lat="48.05831" lon="7.27183">
        <ele>552</ele>
        <time>2019-12-21T11:53:42Z</time>
      </trkpt>
      <trkpt lat="48.05805" lon="7.27067">
        <ele>571</ele>
        <time>2019-12-21T11:53:47Z</time>
      </trkpt>
      <trkpt lat="48.0578" lon="7.26968">
        <ele>583</ele>
        <time>2019-12-21T11:53:52Z</time>
      </trkpt>
      <trkpt lat="48.05753" lon="7.26899">
        <ele>587</ele>
        <time>2019-12-21T11:53:57Z</time>
      </trkpt>
      <trkpt lat="48.05719" lon="7.26861">
        <ele>592</ele>
        <time>2019-12-21T11:54:02Z</time>
      </trkpt>
      <trkpt lat="48.0575" lon="7.26819">
        <ele>587</ele>
        <time>2019-12-21T11:54:07Z</time>
      </trkpt>
      <trkpt lat="48.0577" lon="7.26818">
        <ele>590</ele>
        <time>2019-12-21T11:54:12Z</time>
      </trkpt>
      <trkpt lat="48.05797" lon="7.26833">
        <ele>595</ele>
        <time>2019-12-21T11:54:17Z</time>
      </trkpt>
      <trkpt lat="48.05825" lon="7.26872">
        <ele>596</ele>
        <time>2019-12-21T11:54:22Z</time>
      </trkpt>
      <trkpt lat="48.0586" lon="7.26925">
        <ele>599</ele>
        <time>2019-12-21T11:54:27Z</time>
      </trkpt>
      <trkpt lat="48.05887" lon="7.26968">
        <ele>603</ele>
        <time>2019-12-21T11:54:32Z</time>
      </trkpt>
      <trkpt lat="48.05913" lon="7.27005">
        <ele>606</ele>
        <time>2019-12-21T11:54:37Z</time>
      </trkpt>
      <trkpt lat="48.05927" lon="7.2703">
        <ele>604</ele>
        <time>2019-12-21T11:54:42Z</time>
      </trkpt>
      <trkpt lat="48.05943" lon="7.27036">
        <ele>604</ele>
        <time>2019-12-21T11:54:47Z</time>
      </trkpt>
      <trkpt lat="48.05959" lon="7.2704">
        <ele>605</ele>
        <time>2019-12-21T11:54:52Z</time>
      </trkpt>
      <trkpt lat="48.05972" lon="7.27036">
        <ele>607</ele>
        <time>2019-12-21T11:54:57Z</time>
      </trkpt>
      <trkpt lat="48.05991" lon="7.27009">
        <ele>613</ele>
        <time>2019-12-21T11:55:02Z</time>
      </trkpt>
      <trkpt lat="48.06014" lon="7.26988">
        <ele>614</ele>
        <time>2019-12-21T11:55:07Z</time>
      </trkpt>
      <trkpt lat="48.0603" lon="7.26981">
        <ele>612</ele>
        <time>2019-12-21T11:55:12Z</time>
      </trkpt>
      <trkpt lat="48.06042" lon="7.26982">
        <ele>609</ele>
        <time>2019-12-21T11:55:17Z</time>
      </trkpt>
      <trkpt lat="48.06057" lon="7.26969">
        <ele>607</ele>
        <time>2019-12-21T11:55:22Z</time>
      </trkpt>
      <trkpt lat="48.06065" lon="7.26949">
        <ele>606</ele>
        <time>2019-12-21T11:55:27Z</time>
      </trkpt>
      <trkpt lat="48.0607" lon="7.26893">
        <ele>605</ele>
        <time>2019-12-21T11:55:32Z</time>
      </trkpt>
      <trkpt lat="48.06077" lon="7.26909">
        <ele>605</ele>
        <time>2019-12-21T11:55:37Z</time>
      </trkpt>
      <trkpt lat="48.06082" lon="7.26895">
        <ele>602</ele>
        <time>2019-12-21T11:55:42Z</time>
      </trkpt>
      <trkpt lat="48.06093" lon="7.26921">
        <ele>600</ele>
        <time>2019-12-21T11:55:47Z</time>
      </trkpt>
      <trkpt lat="48.06102" lon="7.26904">
        <ele>595</ele>
        <time>2019-12-21T11:55:52Z</time>
      </trkpt>
      <trkpt lat="48.06112" lon="7.26953">
        <ele>589</ele>
        <time>2019-12-21T11:55:57Z</time>
      </trkpt>
      <trkpt lat="48.06119" lon="7.26928">
        <ele>588</ele>
        <time>2019-12-21T11:56:02Z</time>
      </trkpt>
      <trkpt lat="48.06127" lon="7.26996">
        <ele>581</ele>
        <time>2019-12-21T11:56:07Z</time>
      </trkpt>
      <trkpt lat="48.06141" lon="7.26972">
        <ele>577</ele>
        <time>2019-12-21T11:56:12Z</time>
      </trkpt>
      <trkpt lat="48.06161" lon="7.26912">
        <ele>569</ele>
        <time>2019-12-21T11:56:17Z</time>
      </trkpt>
      <trkpt lat="48.06174" lon="7.26953">
        <ele>564</ele>
        <time>2019-12-21T11:56:22Z</time>
      </trkpt>
      <trkpt lat="48.06189" lon="7.26887">
        <ele>559</ele>
        <time>2019-12-21T11:56:27Z</time>
      </trkpt>
      <trkpt lat="48.06208" lon="7.26934">
        <ele>554</ele>
        <time>2019-12-21T11:56:32Z</time>
      </trkpt>
      <trkpt lat="48.06226" lon="7.26872">
        <ele>549</ele>
        <time>2019-12-21T11:56:37Z</time>
      </trkpt>
      <trkpt lat="48.06225" lon="7.26847">
        <ele>550</ele>
        <time>2019-12-21T11:56:42Z</time>
      </trkpt>
      <trkpt lat="48.06222" lon="7.2682">
        <ele>551</ele>
        <time>2019-12-21T11:56:47Z</time>
      </trkpt>
      <trkpt lat="48.0623" lon="7.26795">
        <ele>549</ele>
        <time>2019-12-21T11:56:52Z</time>
      </trkpt>
      <trkpt lat="48.06217" lon="7.26784">
        <ele>551</ele>
        <time>2019-12-21T11:56:57Z</time>
      </trkpt>
      <trkpt lat="48.06204" lon="7.26756">
        <ele>552</ele>
        <time>2019-12-21T11:57:02Z</time>
      </trkpt>
      <trkpt lat="48.06165" lon="7.26753">
        <ele>555</ele>
        <time>2019-12-21T11:57:07Z</time>
      </trkpt>
      <trkpt lat="48.06123" lon="7.26734">
        <ele>563</ele>
        <time>2019-12-21T11:57:12Z</time>
      </trkpt>
      <trkpt lat="48.06093" lon="7.26728">
        <ele>569</ele>
        <time>2019-12-21T11:57:17Z</time>
      </trkpt>
      <trkpt lat="48.06047" lon="7.26702">
        <ele>571</ele>
        <time>2019-12-21T11:57:22Z</time>
      </trkpt>
      <trkpt lat="48.06007" lon="7.26663">
        <ele>565</ele>
        <time>2019-12-21T11:57:27Z</time>
      </trkpt>
      <trkpt lat="48.05897" lon="7.26594">
        <ele>559</ele>
        <time>2019-12-21T11:57:32Z</time>
      </trkpt>
      <trkpt lat="48.05854" lon="7.26562">
        <ele>550</ele>
        <time>2019-12-21T11:57:37Z</time>
      </trkpt>
      <trkpt lat="48.05815" lon="7.26547">
        <ele>547</ele>
        <time>2019-12-21T11:57:42Z</time>
      </trkpt>
      <trkpt lat="48.05784" lon="7.26532">
        <ele>543</ele>
        <time>2019-12-21T11:57:47Z</time>
      </trkpt>
      <trkpt lat="48.05769" lon="7.26509">
        <ele>537</ele>
        <time>2019-12-21T11:57:52Z</time>
      </trkpt>
      <trkpt lat="48.05761" lon="7.26531">
        <ele>543</ele>
        <time>2019-12-21T11:57:57Z</time>
      </trkpt>
      <trkpt lat="48.05736" lon="7.26542">
        <ele>548</ele>
        <time>2019-12-21T11:58:02Z</time>
      </trkpt>
      <trkpt lat="48.05693" lon="7.26512">
        <ele>546</ele>
        <time>2019-12-21T11:58:07Z</time>
      </trkpt>
      <trkpt lat="48.05649" lon="7.26516">
        <ele>552</ele>
        <time>2019-12-21T11:58:12Z</time>
      </trkpt>
      <trkpt lat="48.05593" lon="7.26515">
        <ele>558</ele>
        <time>2019-12-21T11:58:17Z</time>
      </trkpt>
      <trkpt lat="48.05531" lon="7.26484">
        <ele>563</ele>
        <time>2019-12-21T11:58:22Z</time>
      </trkpt>
      <trkpt lat="48.05474" lon="7.2646">
        <ele>572</ele>
        <time>2019-12-21T11:58:27Z</time>
      </trkpt>
      <trkpt lat="48.05458" lon="7.26448">
        <ele>575</ele>
        <time>2019-12-21T11:58:32Z</time>
      </trkpt>
      <trkpt lat="48.05372" lon="7.2643">
        <ele>593</ele>
        <time>2019-12-21T11:58:37Z</time>
      </trkpt>
      <trkpt lat="48.05393" lon="7.2648">
        <ele>594</ele>
        <time>2019-12-21T11:58:42Z</time>
      </trkpt>
      <trkpt lat="48.0536" lon="7.26475">
        <ele>598</ele>
        <time>2019-12-21T11:58:47Z</time>
      </trkpt>
      <trkpt lat="48.05325" lon="7.26475">
        <ele>601</ele>
        <time>2019-12-21T11:58:52Z</time>
      </trkpt>
      <trkpt lat="48.05283" lon="7.26497">
        <ele>603</ele>
        <time>2019-12-21T11:58:57Z</time>
      </trkpt>
      <trkpt lat="48.05266" lon="7.26523">
        <ele>605</ele>
        <time>2019-12-21T11:59:02Z</time>
      </trkpt>
      <trkpt lat="48.05214" lon="7.2649">
        <ele>605</ele>
        <time>2019-12-21T11:59:07Z</time>
      </trkpt>
      <trkpt lat="48.05168" lon="7.26465">
        <ele>608</ele>
        <time>2019-12-21T11:59:12Z</time>
      </trkpt>
      <trkpt lat="48.05122" lon="7.26462">
        <ele>611</ele>
        <time>2019-12-21T11:59:17Z</time>
      </trkpt>
      <trkpt lat="48.05096" lon="7.26488">
        <ele>612</ele>
        <time>2019-12-21T11:59:22Z</time>
      </trkpt>
      <trkpt lat="48.05072" lon="7.26375">
        <ele>620</ele>
        <time>2019-12-21T11:59:27Z</time>
      </trkpt>
      <trkpt lat="48.05038" lon="7.26319">
        <ele>622</ele>
        <time>2019-12-21T11:59:32Z</time>
      </trkpt>
      <trkpt lat="48.04983" lon="7.2625">
        <ele>629</ele>
        <time>2019-12-21T11:59:37Z</time>
      </trkpt>
      <trkpt lat="48.04972" lon="7.26173">
        <ele>632</ele>
        <time>2019-12-21T11:59:42Z</time>
      </trkpt>
      <trkpt lat="48.04934" lon="7.261">
        <ele>635</ele>
        <time>2019-12-21T11:59:47Z</time>
      </trkpt>
      <trkpt lat="48.04879" lon="7.26096">
        <ele>635</ele>
        <time>2019-12-21T11:59:52Z</time>
      </trkpt>
      <trkpt lat="48.04836" lon="7.2607">
        <ele>638</ele>
        <time>2019-12-21T11:59:57Z</time>
      </trkpt>
      <trkpt lat="48.0477" lon="7.26047">
        <ele>645</ele>
        <time>2019-12-21T12:00:02Z</time>
      </trkpt>
      <trkpt lat="48.04745" lon="7.26001">
        <ele>656</ele>
        <time>2019-12-21T12:00:07Z</time>
      </trkpt>
      <trkpt lat="48.04691" lon="7.25847">
        <ele>665</ele>
        <time>2019-12-21T12:00:12Z</time>
      </trkpt>
      <trkpt lat="48.04652" lon="7.25763">
        <ele>662</ele>
        <time>2019-12-21T12:00:17Z</time>
      </trkpt>
      <trkpt lat="48.0457" lon="7.25731">
        <ele>660</ele>
        <time>2019-12-21T12:00:22Z</time>
      </trkpt>
      <trkpt lat="48.04509" lon="7.25719">
        <ele>655</ele>
        <time>2019-12-21T12:00:27Z</time>
      </trkpt>
      <trkpt lat="48.04467" lon="7.25684">
        <ele>654</ele>
        <time>2019-12-21T12:00:32Z</time>
      </trkpt>
      <trkpt lat="48.04418" lon="7.25611">
        <ele>651</ele>
        <time>2019-12-21T12:00:37Z</time>
      </trkpt>
      <trkpt lat="48.04381" lon="7.25602">
        <ele>653</ele>
        <time>2019-12-21T12:00:42Z</time>
      </trkpt>
      <trkpt lat="48.04372" lon="7.25606">
        <ele>653</ele>
        <time>2019-12-21T12:00:47Z</time>
      </trkpt>
      <trkpt lat="48.04323" lon="7.25602">
        <ele>656</ele>
        <time>2019-12-21T12:00:52Z</time>
      </trkpt>
      <trkpt lat="48.04283" lon="7.25611">
        <ele>655</ele>
        <time>2019-12-21T12:00:57Z</time>
      </trkpt>
      <trkpt lat="48.04234" lon="7.25593">
        <ele>659</ele>
        <time>2019-12-21T12:01:02Z</time>
      </trkpt>
      <trkpt lat="48.04183" lon="7.25525">
        <ele>671</ele>
        <time>2019-12-21T12:01:07Z</time>
      </trkpt>
      <trkpt lat="48.0414" lon="7.25495">
        <ele>678</ele>
        <time>2019-12-21T12:01:12Z</time>
      </trkpt>
      <trkpt lat="48.04131" lon="7.25405">
        <ele>682</ele>
        <time>2019-12-21T12:01:17Z</time>
      </trkpt>
      <trkpt lat="48.04117" lon="7.25392">
        <ele>683</ele>
        <time>2019-12-21T12:01:22Z</time>
      </trkpt>
      <trkpt lat="48.04085" lon="7.25194">
        <ele>681</ele>
        <time>2019-12-21T12:01:27Z</time>
      </trkpt>
      <trkpt lat="48.04051" lon="7.25156">
        <ele>691</ele>
        <time>2019-12-21T12:01:32Z</time>
      </trkpt>
      <trkpt lat="48.04013" lon="7.24941">
        <ele>690</ele>
        <time>2019-12-21T12:01:37Z</time>
      </trkpt>
      <trkpt lat="48.03835" lon="7.24821">
        <ele>715</ele>
        <time>2019-12-21T12:01:42Z</time>
      </trkpt>
      <trkpt lat="48.03813" lon="7.24718">
        <ele>712</ele>
        <time>2019-12-21T12:01:47Z</time>
      </trkpt>
      <trkpt lat="48.03735" lon="7.24568">
        <ele>725</ele>
        <time>2019-12-21T12:01:52Z</time>
      </trkpt>
      <trkpt lat="48.03715" lon="7.24469">
        <ele>724</ele>
        <time>2019-12-21T12:01:57Z</time>
      </trkpt>
      <trkpt lat="48.03686" lon="7.24366">
        <ele>729</ele>
        <time>2019-12-21T12:02:02Z</time>
      </trkpt>
      <trkpt lat="48.03626" lon="7.24237">
        <ele>730</ele>
        <time>2019-12-21T12:02:07Z</time>
      </trkpt>
      <trkpt lat="48.03655" lon="7.24353">
        <ele>738</ele>
        <time>2019-12-21T12:02:12Z</time>
      </trkpt>
      <trkpt lat="48.03689" lon="7.24478">
        <ele>738</ele>
        <time>2019-12-21T12:02:17Z</time>
      </trkpt>
      <trkpt lat="48.03701" lon="7.24551">
        <ele>738</ele>
        <time>2019-12-21T12:02:22Z</time>
      </trkpt>
      <trkpt lat="48.03701" lon="7.24684">
        <ele>744</ele>
        <time>2019-12-21T12:02:27Z</time>
      </trkpt>
      <trkpt lat="48.03695" lon="7.24739">
        <ele>741</ele>
        <time>2019-12-21T12:02:32Z</time>
      </trkpt>
      <trkpt lat="48.03709" lon="7.24817">
        <ele>732</ele>
        <time>2019-12-21T12:02:37Z</time>
      </trkpt>
      <trkpt lat="48.03701" lon="7.24877">
        <ele>730</ele>
        <time>2019-12-21T12:02:42Z</time>
      </trkpt>
      <trkpt lat="48.03649" lon="7.25014">
        <ele>734</ele>
        <time>2019-12-21T12:02:47Z</time>
      </trkpt>
      <trkpt lat="48.03606" lon="7.25126">
        <ele>732</ele>
        <time>2019-12-21T12:02:52Z</time>
      </trkpt>
      <trkpt lat="48.03597" lon="7.25173">
        <ele>731</ele>
        <time>2019-12-21T12:02:57Z</time>
      </trkpt>
      <trkpt lat="48.03597" lon="7.25246">
        <ele>729</ele>
        <time>2019-12-21T12:03:02Z</time>
      </trkpt>
      <trkpt lat="48.0364" lon="7.25327">
        <ele>731</ele>
        <time>2019-12-21T12:03:07Z</time>
      </trkpt>
      <trkpt lat="48.03669" lon="7.25388">
        <ele>731</ele>
        <time>2019-12-21T12:03:12Z</time>
      </trkpt>
      <trkpt lat="48.03681" lon="7.25495">
        <ele>729</ele>
        <time>2019-12-21T12:03:17Z</time>
      </trkpt>
      <trkpt lat="48.03735" lon="7.25559">
        <ele>716</ele>
        <time>2019-12-21T12:03:22Z</time>
      </trkpt>
      <trkpt lat="48.0379" lon="7.25641">
        <ele>700</ele>
        <time>2019-12-21T12:03:27Z</time>
      </trkpt>
      <trkpt lat="48.03824" lon="7.25709">
        <ele>689</ele>
        <time>2019-12-21T12:03:32Z</time>
      </trkpt>
      <trkpt lat="48.03875" lon="7.25869">
        <ele>664</ele>
        <time>2019-12-21T12:03:37Z</time>
      </trkpt>
      <trkpt lat="48.03898" lon="7.25942">
        <ele>657</ele>
        <time>2019-12-21T12:03:42Z</time>
      </trkpt>
      <trkpt lat="48.03913" lon="7.2598">
        <ele>657</ele>
        <time>2019-12-21T12:03:47Z</time>
      </trkpt>
      <trkpt lat="48.03939" lon="7.26035">
        <ele>649</ele>
        <time>2019-12-21T12:03:52Z</time>
      </trkpt>
      <trkpt lat="48.03945" lon="7.26074">
        <ele>642</ele>
        <time>2019-12-21T12:03:57Z</time>
      </trkpt>
      <trkpt lat="48.03942" lon="7.26173">
        <ele>628</ele>
        <time>2019-12-21T12:04:02Z</time>
      </trkpt>
      <trkpt lat="48.03955" lon="7.26225">
        <ele>621</ele>
        <time>2019-12-21T12:04:07Z</time>
      </trkpt>
      <trkpt lat="48.04005" lon="7.26323">
        <ele>616</ele>
        <time>2019-12-21T12:04:12Z</time>
      </trkpt>
      <trkpt lat="48.04019" lon="7.26383">
        <ele>610</ele>
        <time>2019-12-21T12:04:17Z</time>
      </trkpt>
      <trkpt lat="48.04008" lon="7.26409">
        <ele>608</ele>
        <time>2019-12-21T12:04:22Z</time>
      </trkpt>
      <trkpt lat="48.04005" lon="7.26542">
        <ele>600</ele>
        <time>2019-12-21T12:04:27Z</time>
      </trkpt>
      <trkpt lat="48.04032" lon="7.26596">
        <ele>594</ele>
        <time>2019-12-21T12:04:32Z</time>
      </trkpt>
      <trkpt lat="48.04059" lon="7.26649">
        <ele>588</ele>
        <time>2019-12-21T12:04:37Z</time>
      </trkpt>
      <trkpt lat="48.04048" lon="7.26847">
        <ele>572</ele>
        <time>2019-12-21T12:04:42Z</time>
      </trkpt>
      <trkpt lat="48.04065" lon="7.26902">
        <ele>563</ele>
        <time>2019-12-21T12:04:47Z</time>
      </trkpt>
      <trkpt lat="48.04036" lon="7.26924">
        <ele>561</ele>
        <time>2019-12-21T12:04:52Z</time>
      </trkpt>
      <trkpt lat="48.04033" lon="7.27036">
        <ele>552</ele>
        <time>2019-12-21T12:04:57Z</time>
      </trkpt>
      <trkpt lat="48.04028" lon="7.2707">
        <ele>551</ele>
        <time>2019-12-21T12:05:02Z</time>
      </trkpt>
      <trkpt lat="48.0397" lon="7.27057">
        <ele>553</ele>
        <time>2019-12-21T12:05:07Z</time>
      </trkpt>
      <trkpt lat="48.0395" lon="7.27117">
        <ele>557</ele>
        <time>2019-12-21T12:05:12Z</time>
      </trkpt>
      <trkpt lat="48.03945" lon="7.27138">
        <ele>560</ele>
        <time>2019-12-21T12:05:17Z</time>
      </trkpt>
      <trkpt lat="48.03899" lon="7.27203">
        <ele>568</ele>
        <time>2019-12-21T12:05:22Z</time>
      </trkpt>
      <trkpt lat="48.03853" lon="7.27254">
        <ele>566</ele>
        <time>2019-12-21T12:05:27Z</time>
      </trkpt>
      <trkpt lat="48.03841" lon="7.27276">
        <ele>566</ele>
        <time>2019-12-21T12:05:32Z</time>
      </trkpt>
      <trkpt lat="48.03847" lon="7.27352">
        <ele>570</ele>
        <time>2019-12-21T12:05:37Z</time>
      </trkpt>
      <trkpt lat="48.03879" lon="7.27349">
        <ele>573</ele>
        <time>2019-12-21T12:05:42Z</time>
      </trkpt>
      <trkpt lat="48.0392" lon="7.27305">
        <ele>580</ele>
        <time>2019-12-21T12:05:47Z</time>
      </trkpt>
      <trkpt lat="48.0395" lon="7.27284">
        <ele>573</ele>
        <time>2019-12-21T12:05:52Z</time>
      </trkpt>
      <trkpt lat="48.03919" lon="7.27306">
        <ele>580</ele>
        <time>2019-12-21T12:05:57Z</time>
      </trkpt>
      <trkpt lat="48.03879" lon="7.27349">
        <ele>573</ele>
        <time>2019-12-21T12:06:02Z</time>
      </trkpt>
      <trkpt lat="48.03847" lon="7.27352">
        <ele>570</ele>
        <time>2019-12-21T12:06:07Z</time>
      </trkpt>
      <trkpt lat="48.03824" lon="7.27383">
        <ele>563</ele>
        <time>2019-12-21T12:06:12Z</time>
      </trkpt>
      <trkpt lat="48.03811" lon="7.27402">
        <ele>557</ele>
        <time>2019-12-21T12:06:17Z</time>
      </trkpt>
      <trkpt lat="48.03784" lon="7.27385">
        <ele>550</ele>
        <time>2019-12-21T12:06:22Z</time>
      </trkpt>
      <trkpt lat="48.03782" lon="7.27454">
        <ele>541</ele>
        <time>2019-12-21T12:06:27Z</time>
      </trkpt>
      <trkpt lat="48.03761" lon="7.274">
        <ele>544</ele>
        <time>2019-12-21T12:06:32Z</time>
      </trkpt>
      <trkpt lat="48.03744" lon="7.2746">
        <ele>534</ele>
        <time>2019-12-21T12:06:37Z</time>
      </trkpt>
      <trkpt lat="48.03731" lon="7.27443">
        <ele>531</ele>
        <time>2019-12-21T12:06:42Z</time>
      </trkpt>
      <trkpt lat="48.03716" lon="7.27503">
        <ele>521</ele>
        <time>2019-12-21T12:06:47Z</time>
      </trkpt>
      <trkpt lat="48.03706" lon="7.2752">
        <ele>513</ele>
        <time>2019-12-21T12:06:52Z</time>
      </trkpt>
      <trkpt lat="48.03698" lon="7.27482">
        <ele>517</ele>
        <time>2019-12-21T12:06:57Z</time>
      </trkpt>
      <trkpt lat="48.03699" lon="7.27518">
        <ele>512</ele>
        <time>2019-12-21T12:07:02Z</time>
      </trkpt>
      <trkpt lat="48.03682" lon="7.27501">
        <ele>511</ele>
        <time>2019-12-21T12:07:07Z</time>
      </trkpt>
      <trkpt lat="48.03676" lon="7.27533">
        <ele>503</ele>
        <time>2019-12-21T12:07:12Z</time>
      </trkpt>
      <trkpt lat="48.03672" lon="7.27565">
        <ele>496</ele>
        <time>2019-12-21T12:07:17Z</time>
      </trkpt>
      <trkpt lat="48.03653" lon="7.27559">
        <ele>490</ele>
        <time>2019-12-21T12:07:22Z</time>
      </trkpt>
      <trkpt lat="48.03656" lon="7.27593">
        <ele>484</ele>
        <time>2019-12-21T12:07:27Z</time>
      </trkpt>
      <trkpt lat="48.03639" lon="7.27574">
        <ele>482</ele>
        <time>2019-12-21T12:07:32Z</time>
      </trkpt>
      <trkpt lat="48.03638" lon="7.27619">
        <ele>469</ele>
        <time>2019-12-21T12:07:37Z</time>
      </trkpt>
      <trkpt lat="48.03615" lon="7.27589">
        <ele>469</ele>
        <time>2019-12-21T12:07:42Z</time>
      </trkpt>
      <trkpt lat="48.03617" lon="7.27632">
        <ele>460</ele>
        <time>2019-12-21T12:07:47Z</time>
      </trkpt>
      <trkpt lat="48.03599" lon="7.27621">
        <ele>457</ele>
        <time>2019-12-21T12:07:52Z</time>
      </trkpt>
      <trkpt lat="48.0358" lon="7.27636">
        <ele>449</ele>
        <time>2019-12-21T12:07:57Z</time>
      </trkpt>
      <trkpt lat="48.03587" lon="7.27664">
        <ele>446</ele>
        <time>2019-12-21T12:08:02Z</time>
      </trkpt>
      <trkpt lat="48.03559" lon="7.27658">
        <ele>440</ele>
        <time>2019-12-21T12:08:07Z</time>
      </trkpt>
      <trkpt lat="48.03564" lon="7.27699">
        <ele>432</ele>
        <time>2019-12-21T12:08:12Z</time>
      </trkpt>
      <trkpt lat="48.03563" lon="7.2772">
        <ele>425</ele>
        <time>2019-12-21T12:08:17Z</time>
      </trkpt>
      <trkpt lat="48.03534" lon="7.27729">
        <ele>419</ele>
        <time>2019-12-21T12:08:22Z</time>
      </trkpt>
      <trkpt lat="48.03511" lon="7.27729">
        <ele>417</ele>
        <time>2019-12-21T12:08:27Z</time>
      </trkpt>
      <trkpt lat="48.03483" lon="7.27716">
        <ele>415</ele>
        <time>2019-12-21T12:08:32Z</time>
      </trkpt>
      <trkpt lat="48.03461" lon="7.27669">
        <ele>421</ele>
        <time>2019-12-21T12:08:37Z</time>
      </trkpt>
      <trkpt lat="48.03439" lon="7.27724">
        <ele>408</ele>
        <time>2019-12-21T12:08:42Z</time>
      </trkpt>
      <trkpt lat="48.03438" lon="7.27763">
        <ele>400</ele>
        <time>2019-12-21T12:08:47Z</time>
      </trkpt>
      <trkpt lat="48.03432" lon="7.27799">
        <ele>391</ele>
        <time>2019-12-21T12:08:52Z</time>
      </trkpt>
      <trkpt lat="48.03451" lon="7.27825">
        <ele>387</ele>
        <time>2019-12-21T12:08:57Z</time>
      </trkpt>
      <trkpt lat="48.03451" lon="7.27984">
        <ele>374</ele>
        <time>2019-12-21T12:09:02Z</time>
      </trkpt>
      <trkpt lat="48.03468" lon="7.27978">
        <ele>374</ele>
        <time>2019-12-21T12:09:07Z</time>
      </trkpt>
      <trkpt lat="48.03487" lon="7.28001">
        <ele>373</ele>
        <time>2019-12-21T12:09:12Z</time>
      </trkpt>
      <trkpt lat="48.03533" lon="7.28003">
        <ele>373</ele>
        <time>2019-12-21T12:09:17Z</time>
      </trkpt>
      <trkpt lat="48.03576" lon="7.28027">
        <ele>372</ele>
        <time>2019-12-21T12:09:22Z</time>
      </trkpt>
      <trkpt lat="48.03576" lon="7.28048">
        <ele>370</ele>
        <time>2019-12-21T12:09:27Z</time>
      </trkpt>
      <trkpt lat="48.03593" lon="7.28138">
        <ele>359</ele>
        <time>2019-12-21T12:09:32Z</time>
      </trkpt>
      <trkpt lat="48.0359" lon="7.28183">
        <ele>354</ele>
        <time>2019-12-21T12:09:37Z</time>
      </trkpt>
      <trkpt lat="48.03533" lon="7.28301">
        <ele>346</ele>
        <time>2019-12-21T12:09:42Z</time>
      </trkpt>
      <trkpt lat="48.03586" lon="7.28321">
        <ele>345</ele>
        <time>2019-12-21T12:09:47Z</time>
      </trkpt>
      <trkpt lat="48.03659" lon="7.28338">
        <ele>348</ele>
        <time>2019-12-21T12:09:52Z</time>
      </trkpt>
      <trkpt lat="48.03668" lon="7.28409">
        <ele>345</ele>
        <time>2019-12-21T12:09:57Z</time>
      </trkpt>
      <trkpt lat="48.03691" lon="7.2846">
        <ele>343</ele>
        <time>2019-12-21T12:10:02Z</time>
      </trkpt>
      <trkpt lat="48.03689" lon="7.28546">
        <ele>337</ele>
        <time>2019-12-21T12:10:07Z</time>
      </trkpt>
      <trkpt lat="48.03686" lon="7.286">
        <ele>334</ele>
        <time>2019-12-21T12:10:12Z</time>
      </trkpt>
      <trkpt lat="48.03705" lon="7.2872">
        <ele>328</ele>
        <time>2019-12-21T12:10:17Z</time>
      </trkpt>
      <trkpt lat="48.03702" lon="7.28773">
        <ele>323</ele>
        <time>2019-12-21T12:10:22Z</time>
      </trkpt>
      <trkpt lat="48.03729" lon="7.28877">
        <ele>316</ele>
        <time>2019-12-21T12:10:27Z</time>
      </trkpt>
      <trkpt lat="48.03721" lon="7.28947">
        <ele>309</ele>
        <time>2019-12-21T12:10:32Z</time>
      </trkpt>
      <trkpt lat="48.03719" lon="7.29005">
        <ele>303</ele>
        <time>2019-12-21T12:10:37Z</time>
      </trkpt>
      <trkpt lat="48.03744" lon="7.2904">
        <ele>299</ele>
        <time>2019-12-21T12:10:42Z</time>
      </trkpt>
      <trkpt lat="48.03765" lon="7.29072">
        <ele>294</ele>
        <time>2019-12-21T12:10:47Z</time>
      </trkpt>
      <trkpt lat="48.03775" lon="7.29115">
        <ele>289</ele>
        <time>2019-12-21T12:10:52Z</time>
      </trkpt>
      <trkpt lat="48.03787" lon="7.29181">
        <ele>281</ele>
        <time>2019-12-21T12:10:57Z</time>
      </trkpt>
      <trkpt lat="48.03847" lon="7.29158">
        <ele>279</ele>
        <time>2019-12-21T12:11:02Z</time>
      </trkpt>
      <trkpt lat="48.03894" lon="7.2914">
        <ele>279</ele>
        <time>2019-12-21T12:11:07Z</time>
      </trkpt>
      <trkpt lat="48.03909" lon="7.29256">
        <ele>270</ele>
        <time>2019-12-21T12:11:12Z</time>
      </trkpt>
      <trkpt lat="48.03966" lon="7.29331">
        <ele>262</ele>
        <time>2019-12-21T12:11:17Z</time>
      </trkpt>
      <trkpt lat="48.03973" lon="7.29452">
        <ele>251</ele>
        <time>2019-12-21T12:11:22Z</time>
      </trkpt>
      <trkpt lat="48.03988" lon="7.29535">
        <ele>245</ele>
        <time>2019-12-21T12:11:27Z</time>
      </trkpt>
      <trkpt lat="48.04019" lon="7.296">
        <ele>240</ele>
        <time>2019-12-21T12:11:32Z</time>
      </trkpt>
      <trkpt lat="48.04071" lon="7.29673">
        <ele>234</ele>
        <time>2019-12-21T12:11:37Z</time>
      </trkpt>
      <trkpt lat="48.04074" lon="7.29724">
        <ele>231</ele>
        <time>2019-12-21T12:11:42Z</time>
      </trkpt>
      <trkpt lat="48.04075" lon="7.29803">
        <ele>228</ele>
        <time>2019-12-21T12:11:47Z</time>
      </trkpt>
      <trkpt lat="48.04068" lon="7.29932">
        <ele>229</ele>
        <time>2019-12-21T12:11:52Z</time>
      </trkpt>
      <trkpt lat="48.04118" lon="7.29934">
        <ele>226</ele>
        <time>2019-12-21T12:11:57Z</time>
      </trkpt>
      <trkpt lat="48.04158" lon="7.29947">
        <ele>223</ele>
        <time>2019-12-21T12:12:02Z</time>
      </trkpt>
    </trkseg>
  </trk>
</gpx>